sensor_id;sensor_type;location;lat;lon;timestamp;P1;durP1;ratioP1;P2;durP2;ratioP2
72864;SDS011;61000;48.120;11.548;2024-02-21T00:01:56;6.90;;;3.33;;
72864;SDS011;61000;48.120;11.548;2024-02-21T00:04:23;6.90;;;3.10;;
72864;SDS011;61000;48.120;11.548;2024-02-21T00:06:50;4.63;;;2.67;;
72864;SDS011;61000;48.120;11.548;2024-02-21T00:09:17;5.57;;;2.60;;
72864;SDS011;61000;48.120;11.548;2024-02-21T00:11:45;4.88;;;2.65;;
72864;SDS011;61000;48.120;11.548;2024-02-21T00:14:13;4.03;;;2.78;;
72864;SDS011;61000;48.120;11.548;2024-02-21T00:16:42;7.45;;;2.80;;
72864;SDS011;61000;48.120;11.548;2024-02-21T00:19:09;5.57;;;3.05;;
72864;SDS011;61000;48.120;11.548;2024-02-21T00:21:36;3.78;;;2.33;;
72864;SDS011;61000;48.120;11.548;2024-02-21T00:24:02;3.58;;;2.60;;
72864;SDS011;61000;48.120;11.548;2024-02-21T00:26:30;5.75;;;2.83;;
72864;SDS011;61000;48.120;11.548;2024-02-21T00:28:56;3.15;;;2.83;;
72864;SDS011;61000;48.120;11.548;2024-02-21T00:31:23;7.28;;;2.72;;
72864;SDS011;61000;48.120;11.548;2024-02-21T00:33:52;6.10;;;2.47;;
72864;SDS011;61000;48.120;11.548;2024-02-21T00:36:18;4.32;;;2.67;;
72864;SDS011;61000;48.120;11.548;2024-02-21T00:38:45;3.60;;;2.50;;
72864;SDS011;61000;48.120;11.548;2024-02-21T00:41:12;5.78;;;3.10;;
72864;SDS011;61000;48.120;11.548;2024-02-21T00:43:39;3.92;;;2.83;;
72864;SDS011;61000;48.120;11.548;2024-02-21T00:46:06;6.88;;;2.75;;
72864;SDS011;61000;48.120;11.548;2024-02-21T00:48:33;5.43;;;2.72;;
72864;SDS011;61000;48.120;11.548;2024-02-21T00:51:04;5.03;;;2.90;;
72864;SDS011;61000;48.120;11.548;2024-02-21T00:53:31;5.10;;;2.53;;
72864;SDS011;61000;48.120;11.548;2024-02-21T00:55:58;6.28;;;2.97;;
72864;SDS011;61000;48.120;11.548;2024-02-21T00:58:25;6.07;;;3.30;;
72864;SDS011;61000;48.120;11.548;2024-02-21T01:00:52;4.07;;;2.80;;
72864;SDS011;61000;48.120;11.548;2024-02-21T01:03:19;4.60;;;2.63;;
72864;SDS011;61000;48.120;11.548;2024-02-21T01:05:46;3.13;;;2.40;;
72864;SDS011;61000;48.120;11.548;2024-02-21T01:08:14;2.70;;;2.50;;
72864;SDS011;61000;48.120;11.548;2024-02-21T01:10:41;3.28;;;2.50;;
72864;SDS011;61000;48.120;11.548;2024-02-21T01:13:08;3.80;;;2.67;;
72864;SDS011;61000;48.120;11.548;2024-02-21T01:15:35;6.00;;;3.03;;
72864;SDS011;61000;48.120;11.548;2024-02-21T01:18:02;4.60;;;2.38;;
72864;SDS011;61000;48.120;11.548;2024-02-21T01:20:30;4.30;;;2.70;;
72864;SDS011;61000;48.120;11.548;2024-02-21T01:22:57;3.25;;;2.35;;
72864;SDS011;61000;48.120;11.548;2024-02-21T01:25:25;4.40;;;2.03;;
72864;SDS011;61000;48.120;11.548;2024-02-21T01:27:52;4.95;;;2.42;;
72864;SDS011;61000;48.120;11.548;2024-02-21T01:30:19;2.42;;;2.22;;
72864;SDS011;61000;48.120;11.548;2024-02-21T01:32:45;4.53;;;2.47;;
72864;SDS011;61000;48.120;11.548;2024-02-21T01:35:12;4.65;;;2.28;;
72864;SDS011;61000;48.120;11.548;2024-02-21T01:37:39;5.25;;;2.88;;
72864;SDS011;61000;48.120;11.548;2024-02-21T01:40:07;4.80;;;2.67;;
72864;SDS011;61000;48.120;11.548;2024-02-21T01:42:38;4.75;;;2.67;;
72864;SDS011;61000;48.120;11.548;2024-02-21T01:45:06;4.05;;;2.70;;
72864;SDS011;61000;48.120;11.548;2024-02-21T01:47:33;2.63;;;2.42;;
72864;SDS011;61000;48.120;11.548;2024-02-21T01:50:00;7.38;;;2.47;;
72864;SDS011;61000;48.120;11.548;2024-02-21T01:52:28;2.50;;;2.20;;
72864;SDS011;61000;48.120;11.548;2024-02-21T01:54:55;2.58;;;2.17;;
72864;SDS011;61000;48.120;11.548;2024-02-21T01:57:23;3.38;;;2.13;;
72864;SDS011;61000;48.120;11.548;2024-02-21T01:59:52;2.97;;;2.50;;
72864;SDS011;61000;48.120;11.548;2024-02-21T02:02:19;4.07;;;2.20;;
72864;SDS011;61000;48.120;11.548;2024-02-21T02:04:46;3.15;;;2.35;;
72864;SDS011;61000;48.120;11.548;2024-02-21T02:07:13;5.65;;;2.40;;
72864;SDS011;61000;48.120;11.548;2024-02-21T02:09:40;4.72;;;2.42;;
72864;SDS011;61000;48.120;11.548;2024-02-21T02:12:08;2.35;;;1.90;;
72864;SDS011;61000;48.120;11.548;2024-02-21T02:14:35;3.85;;;2.03;;
72864;SDS011;61000;48.120;11.548;2024-02-21T02:17:03;2.28;;;2.08;;
72864;SDS011;61000;48.120;11.548;2024-02-21T02:19:30;2.88;;;2.30;;
72864;SDS011;61000;48.120;11.548;2024-02-21T02:21:59;2.55;;;2.22;;
72864;SDS011;61000;48.120;11.548;2024-02-21T02:24:31;3.00;;;2.13;;
72864;SDS011;61000;48.120;11.548;2024-02-21T02:26:58;3.80;;;2.40;;
72864;SDS011;61000;48.120;11.548;2024-02-21T02:29:24;2.22;;;2.03;;
72864;SDS011;61000;48.120;11.548;2024-02-21T02:31:51;6.15;;;3.25;;
72864;SDS011;61000;48.120;11.548;2024-02-21T02:34:18;4.95;;;2.67;;
72864;SDS011;61000;48.120;11.548;2024-02-21T02:36:45;2.63;;;2.25;;
72864;SDS011;61000;48.120;11.548;2024-02-21T02:39:13;2.38;;;2.17;;
72864;SDS011;61000;48.120;11.548;2024-02-21T02:41:42;2.83;;;2.00;;
72864;SDS011;61000;48.120;11.548;2024-02-21T02:44:08;4.35;;;2.03;;
72864;SDS011;61000;48.120;11.548;2024-02-21T02:46:35;3.10;;;2.33;;
72864;SDS011;61000;48.120;11.548;2024-02-21T02:49:02;2.42;;;2.20;;
72864;SDS011;61000;48.120;11.548;2024-02-21T02:51:29;3.20;;;1.95;;
72864;SDS011;61000;48.120;11.548;2024-02-21T02:53:56;2.47;;;1.98;;
72864;SDS011;61000;48.120;11.548;2024-02-21T02:56:25;3.92;;;2.47;;
72864;SDS011;61000;48.120;11.548;2024-02-21T02:58:54;3.60;;;2.13;;
72864;SDS011;61000;48.120;11.548;2024-02-21T03:01:20;2.75;;;2.25;;
72864;SDS011;61000;48.120;11.548;2024-02-21T03:03:47;3.40;;;2.50;;
72864;SDS011;61000;48.120;11.548;2024-02-21T03:06:14;2.55;;;2.25;;
72864;SDS011;61000;48.120;11.548;2024-02-21T03:08:41;3.28;;;1.90;;
72864;SDS011;61000;48.120;11.548;2024-02-21T03:11:08;2.20;;;2.00;;
72864;SDS011;61000;48.120;11.548;2024-02-21T03:13:36;3.05;;;1.95;;
72864;SDS011;61000;48.120;11.548;2024-02-21T03:16:04;2.60;;;2.40;;
72864;SDS011;61000;48.120;11.548;2024-02-21T03:18:32;4.95;;;2.47;;
72864;SDS011;61000;48.120;11.548;2024-02-21T03:20:58;5.72;;;2.10;;
72864;SDS011;61000;48.120;11.548;2024-02-21T03:23:25;4.40;;;2.28;;
72864;SDS011;61000;48.120;11.548;2024-02-21T03:25:52;2.55;;;2.20;;
72864;SDS011;61000;48.120;11.548;2024-02-21T03:28:19;2.47;;;2.00;;
72864;SDS011;61000;48.120;11.548;2024-02-21T03:30:46;2.85;;;1.88;;
72864;SDS011;61000;48.120;11.548;2024-02-21T03:33:14;3.10;;;2.38;;
72864;SDS011;61000;48.120;11.548;2024-02-21T03:35:41;1.90;;;1.80;;
72864;SDS011;61000;48.120;11.548;2024-02-21T03:38:08;5.63;;;2.47;;
72864;SDS011;61000;48.120;11.548;2024-02-21T03:40:35;3.53;;;1.80;;
72864;SDS011;61000;48.120;11.548;2024-02-21T03:43:01;2.50;;;2.15;;
72864;SDS011;61000;48.120;11.548;2024-02-21T03:45:29;3.50;;;1.70;;
72864;SDS011;61000;48.120;11.548;2024-02-21T03:47:55;3.58;;;1.98;;
72864;SDS011;61000;48.120;11.548;2024-02-21T03:50:24;2.50;;;2.25;;
72864;SDS011;61000;48.120;11.548;2024-02-21T03:52:52;2.30;;;2.10;;
72864;SDS011;61000;48.120;11.548;2024-02-21T03:55:19;3.92;;;2.00;;
72864;SDS011;61000;48.120;11.548;2024-02-21T03:57:47;1.75;;;1.65;;
72864;SDS011;61000;48.120;11.548;2024-02-21T04:00:14;2.08;;;1.90;;
72864;SDS011;61000;48.120;11.548;2024-02-21T04:02:42;2.40;;;1.95;;
72864;SDS011;61000;48.120;11.548;2024-02-21T04:05:08;7.97;;;1.88;;
72864;SDS011;61000;48.120;11.548;2024-02-21T04:07:38;3.75;;;1.70;;
72864;SDS011;61000;48.120;11.548;2024-02-21T04:10:06;3.17;;;1.80;;
72864;SDS011;61000;48.120;11.548;2024-02-21T04:12:33;1.67;;;1.40;;
72864;SDS011;61000;48.120;11.548;2024-02-21T04:15:00;2.28;;;2.08;;
72864;SDS011;61000;48.120;11.548;2024-02-21T04:17:27;1.60;;;1.50;;
72864;SDS011;61000;48.120;11.548;2024-02-21T04:19:56;2.45;;;1.48;;
72864;SDS011;61000;48.120;11.548;2024-02-21T04:22:30;2.40;;;1.90;;
72864;SDS011;61000;48.120;11.548;2024-02-21T04:24:59;1.70;;;1.60;;
72864;SDS011;61000;48.120;11.548;2024-02-21T04:27:26;2.25;;;1.73;;
72864;SDS011;61000;48.120;11.548;2024-02-21T04:29:53;1.98;;;1.77;;
72864;SDS011;61000;48.120;11.548;2024-02-21T04:32:20;2.38;;;1.88;;
72864;SDS011;61000;48.120;11.548;2024-02-21T04:34:47;2.00;;;1.80;;
72864;SDS011;61000;48.120;11.548;2024-02-21T04:37:14;1.77;;;1.40;;
72864;SDS011;61000;48.120;11.548;2024-02-21T04:39:40;2.47;;;1.90;;
72864;SDS011;61000;48.120;11.548;2024-02-21T04:42:09;2.63;;;1.70;;
72864;SDS011;61000;48.120;11.548;2024-02-21T04:44:35;1.60;;;1.50;;
72864;SDS011;61000;48.120;11.548;2024-02-21T04:47:03;1.70;;;1.60;;
72864;SDS011;61000;48.120;11.548;2024-02-21T04:49:30;1.80;;;1.70;;
72864;SDS011;61000;48.120;11.548;2024-02-21T04:51:57;3.50;;;1.98;;
72864;SDS011;61000;48.120;11.548;2024-02-21T04:54:23;2.15;;;1.80;;
72864;SDS011;61000;48.120;11.548;2024-02-21T04:56:50;2.47;;;2.08;;
72864;SDS011;61000;48.120;11.548;2024-02-21T04:59:19;1.67;;;1.58;;
72864;SDS011;61000;48.120;11.548;2024-02-21T05:01:46;1.70;;;1.60;;
72864;SDS011;61000;48.120;11.548;2024-02-21T05:04:13;2.42;;;1.70;;
72864;SDS011;61000;48.120;11.548;2024-02-21T05:06:39;2.38;;;2.17;;
72864;SDS011;61000;48.120;11.548;2024-02-21T05:09:08;3.35;;;1.88;;
72864;SDS011;61000;48.120;11.548;2024-02-21T05:11:35;5.55;;;2.47;;
72864;SDS011;61000;48.120;11.548;2024-02-21T05:14:03;3.92;;;2.92;;
72864;SDS011;61000;48.120;11.548;2024-02-21T05:16:31;5.10;;;2.92;;
72864;SDS011;61000;48.120;11.548;2024-02-21T05:18:58;4.13;;;3.28;;
72864;SDS011;61000;48.120;11.548;2024-02-21T05:21:25;3.42;;;2.08;;
72864;SDS011;61000;48.120;11.548;2024-02-21T05:23:53;3.85;;;2.70;;
72864;SDS011;61000;48.120;11.548;2024-02-21T05:26:20;7.53;;;4.15;;
72864;SDS011;61000;48.120;11.548;2024-02-21T05:28:47;3.13;;;2.38;;
72864;SDS011;61000;48.120;11.548;2024-02-21T05:31:15;3.50;;;2.75;;
72864;SDS011;61000;48.120;11.548;2024-02-21T05:33:43;4.45;;;2.47;;
72864;SDS011;61000;48.120;11.548;2024-02-21T05:36:10;2.20;;;2.00;;
72864;SDS011;61000;48.120;11.548;2024-02-21T05:38:37;3.80;;;2.90;;
72864;SDS011;61000;48.120;11.548;2024-02-21T05:41:04;3.03;;;2.80;;
72864;SDS011;61000;48.120;11.548;2024-02-21T05:43:31;4.20;;;2.70;;
72864;SDS011;61000;48.120;11.548;2024-02-21T05:45:58;5.68;;;3.63;;
72864;SDS011;61000;48.120;11.548;2024-02-21T05:48:25;3.08;;;2.70;;
72864;SDS011;61000;48.120;11.548;2024-02-21T05:50:53;3.60;;;3.08;;
72864;SDS011;61000;48.120;11.548;2024-02-21T05:53:20;7.15;;;4.90;;
72864;SDS011;61000;48.120;11.548;2024-02-21T05:55:47;6.68;;;4.10;;
72864;SDS011;61000;48.120;11.548;2024-02-21T05:58:14;4.10;;;2.35;;
72864;SDS011;61000;48.120;11.548;2024-02-21T06:00:41;4.85;;;2.75;;
72864;SDS011;61000;48.120;11.548;2024-02-21T06:03:08;3.13;;;2.50;;
72864;SDS011;61000;48.120;11.548;2024-02-21T06:05:36;2.22;;;2.03;;
72864;SDS011;61000;48.120;11.548;2024-02-21T06:08:05;3.10;;;1.90;;
72864;SDS011;61000;48.120;11.548;2024-02-21T06:10:33;3.00;;;2.22;;
72864;SDS011;61000;48.120;11.548;2024-02-21T06:13:00;2.20;;;2.10;;
72864;SDS011;61000;48.120;11.548;2024-02-21T06:15:26;2.70;;;2.47;;
72864;SDS011;61000;48.120;11.548;2024-02-21T06:17:53;2.20;;;2.00;;
72864;SDS011;61000;48.120;11.548;2024-02-21T06:20:20;2.75;;;2.35;;
72864;SDS011;61000;48.120;11.548;2024-02-21T06:22:47;2.92;;;2.10;;
72864;SDS011;61000;48.120;11.548;2024-02-21T06:25:15;3.75;;;2.20;;
72864;SDS011;61000;48.120;11.548;2024-02-21T06:27:43;2.83;;;2.15;;
72864;SDS011;61000;48.120;11.548;2024-02-21T06:30:10;3.63;;;2.30;;
72864;SDS011;61000;48.120;11.548;2024-02-21T06:32:37;4.70;;;2.28;;
72864;SDS011;61000;48.120;11.548;2024-02-21T06:35:05;2.50;;;2.20;;
72864;SDS011;61000;48.120;11.548;2024-02-21T06:37:32;2.55;;;2.13;;
72864;SDS011;61000;48.120;11.548;2024-02-21T06:39:59;3.65;;;2.22;;
72864;SDS011;61000;48.120;11.548;2024-02-21T06:42:27;2.75;;;1.98;;
72864;SDS011;61000;48.120;11.548;2024-02-21T06:44:54;3.72;;;2.15;;
72864;SDS011;61000;48.120;11.548;2024-02-21T06:47:22;4.00;;;2.10;;
72864;SDS011;61000;48.120;11.548;2024-02-21T06:49:49;2.47;;;2.28;;
72864;SDS011;61000;48.120;11.548;2024-02-21T06:52:17;4.80;;;2.47;;
72864;SDS011;61000;48.120;11.548;2024-02-21T06:54:45;3.13;;;2.20;;
72864;SDS011;61000;48.120;11.548;2024-02-21T06:57:14;2.95;;;2.20;;
72864;SDS011;61000;48.120;11.548;2024-02-21T06:59:43;3.72;;;1.92;;
72864;SDS011;61000;48.120;11.548;2024-02-21T07:02:10;4.95;;;2.53;;
72864;SDS011;61000;48.120;11.548;2024-02-21T07:04:36;2.97;;;2.22;;
72864;SDS011;61000;48.120;11.548;2024-02-21T07:07:03;2.78;;;1.95;;
72864;SDS011;61000;48.120;11.548;2024-02-21T07:09:30;8.10;;;1.98;;
72864;SDS011;61000;48.120;11.548;2024-02-21T07:11:58;6.28;;;2.47;;
72864;SDS011;61000;48.120;11.548;2024-02-21T07:14:25;2.80;;;2.42;;
72864;SDS011;61000;48.120;11.548;2024-02-21T07:16:53;3.58;;;2.17;;
72864;SDS011;61000;48.120;11.548;2024-02-21T07:19:22;2.97;;;2.30;;
72864;SDS011;61000;48.120;11.548;2024-02-21T07:21:49;3.70;;;2.10;;
72864;SDS011;61000;48.120;11.548;2024-02-21T07:24:16;2.40;;;1.90;;
72864;SDS011;61000;48.120;11.548;2024-02-21T07:26:43;6.35;;;2.53;;
72864;SDS011;61000;48.120;11.548;2024-02-21T07:29:10;4.90;;;2.08;;
72864;SDS011;61000;48.120;11.548;2024-02-21T07:31:40;2.08;;;1.80;;
72864;SDS011;61000;48.120;11.548;2024-02-21T07:34:09;4.55;;;1.85;;
72864;SDS011;61000;48.120;11.548;2024-02-21T07:36:36;2.63;;;2.15;;
72864;SDS011;61000;48.120;11.548;2024-02-21T07:39:03;4.50;;;2.00;;
72864;SDS011;61000;48.120;11.548;2024-02-21T07:41:33;2.40;;;1.70;;
72864;SDS011;61000;48.120;11.548;2024-02-21T07:44:00;3.13;;;1.90;;
72864;SDS011;61000;48.120;11.548;2024-02-21T07:46:28;3.45;;;1.85;;
72864;SDS011;61000;48.120;11.548;2024-02-21T07:48:55;2.53;;;1.90;;
72864;SDS011;61000;48.120;11.548;2024-02-21T07:51:25;4.10;;;1.73;;
72864;SDS011;61000;48.120;11.548;2024-02-21T07:53:54;1.65;;;1.55;;
72864;SDS011;61000;48.120;11.548;2024-02-21T07:56:21;2.45;;;1.50;;
72864;SDS011;61000;48.120;11.548;2024-02-21T07:58:47;1.98;;;1.60;;
72864;SDS011;61000;48.120;11.548;2024-02-21T08:01:18;1.92;;;1.70;;
72864;SDS011;61000;48.120;11.548;2024-02-21T08:03:45;1.73;;;1.63;;
72864;SDS011;61000;48.120;11.548;2024-02-21T08:06:13;3.30;;;1.70;;
72864;SDS011;61000;48.120;11.548;2024-02-21T08:08:41;1.50;;;1.40;;
72864;SDS011;61000;48.120;11.548;2024-02-21T08:11:08;1.98;;;1.60;;
72864;SDS011;61000;48.120;11.548;2024-02-21T08:13:35;1.83;;;1.70;;
72864;SDS011;61000;48.120;11.548;2024-02-21T08:16:02;2.17;;;2.00;;
72864;SDS011;61000;48.120;11.548;2024-02-21T08:18:29;2.03;;;1.83;;
72864;SDS011;61000;48.120;11.548;2024-02-21T08:20:56;3.15;;;2.65;;
72864;SDS011;61000;48.120;11.548;2024-02-21T08:23:23;2.80;;;2.42;;
72864;SDS011;61000;48.120;11.548;2024-02-21T08:25:51;3.60;;;2.25;;
72864;SDS011;61000;48.120;11.548;2024-02-21T08:28:18;3.95;;;2.78;;
72864;SDS011;61000;48.120;11.548;2024-02-21T08:30:45;4.97;;;1.50;;
72864;SDS011;61000;48.120;11.548;2024-02-21T08:33:13;1.67;;;1.58;;
72864;SDS011;61000;48.120;11.548;2024-02-21T08:35:40;5.43;;;3.33;;
72864;SDS011;61000;48.120;11.548;2024-02-21T08:38:07;4.72;;;3.20;;
72864;SDS011;61000;48.120;11.548;2024-02-21T08:40:34;6.97;;;2.53;;
72864;SDS011;61000;48.120;11.548;2024-02-21T08:43:03;1.95;;;1.77;;
72864;SDS011;61000;48.120;11.548;2024-02-21T08:45:30;2.13;;;1.67;;
72864;SDS011;61000;48.120;11.548;2024-02-21T08:47:57;3.63;;;2.20;;
72864;SDS011;61000;48.120;11.548;2024-02-21T08:50:23;4.05;;;2.80;;
72864;SDS011;61000;48.120;11.548;2024-02-21T08:52:50;2.60;;;2.00;;
72864;SDS011;61000;48.120;11.548;2024-02-21T08:55:17;1.50;;;1.40;;
72864;SDS011;61000;48.120;11.548;2024-02-21T08:57:44;1.63;;;1.50;;
72864;SDS011;61000;48.120;11.548;2024-02-21T09:00:13;4.03;;;1.85;;
72864;SDS011;61000;48.120;11.548;2024-02-21T09:02:41;3.25;;;1.50;;
72864;SDS011;61000;48.120;11.548;2024-02-21T09:05:08;1.50;;;1.40;;
72864;SDS011;61000;48.120;11.548;2024-02-21T09:07:35;1.67;;;1.27;;
72864;SDS011;61000;48.120;11.548;2024-02-21T09:10:02;1.70;;;1.13;;
72864;SDS011;61000;48.120;11.548;2024-02-21T09:12:30;0.90;;;0.90;;
72864;SDS011;61000;48.120;11.548;2024-02-21T09:14:57;1.75;;;1.00;;
72864;SDS011;61000;48.120;11.548;2024-02-21T09:17:25;1.30;;;1.20;;
72864;SDS011;61000;48.120;11.548;2024-02-21T09:19:54;0.88;;;0.82;;
72864;SDS011;61000;48.120;11.548;2024-02-21T09:22:24;1.25;;;1.13;;
72864;SDS011;61000;48.120;11.548;2024-02-21T09:24:51;4.43;;;1.38;;
72864;SDS011;61000;48.120;11.548;2024-02-21T09:27:17;1.30;;;1.00;;
72864;SDS011;61000;48.120;11.548;2024-02-21T09:29:44;1.33;;;1.10;;
72864;SDS011;61000;48.120;11.548;2024-02-21T09:32:11;2.67;;;1.08;;
72864;SDS011;61000;48.120;11.548;2024-02-21T09:34:40;2.95;;;1.60;;
72864;SDS011;61000;48.120;11.548;2024-02-21T09:37:07;3.05;;;1.50;;
72864;SDS011;61000;48.120;11.548;2024-02-21T09:39:34;5.70;;;1.17;;
72864;SDS011;61000;48.120;11.548;2024-02-21T09:42:03;1.10;;;1.00;;
72864;SDS011;61000;48.120;11.548;2024-02-21T09:44:33;0.63;;;0.63;;
72864;SDS011;61000;48.120;11.548;2024-02-21T09:47:04;2.58;;;1.08;;
72864;SDS011;61000;48.120;11.548;2024-02-21T09:49:37;3.85;;;1.10;;
72864;SDS011;61000;48.120;11.548;2024-02-21T09:52:06;4.95;;;1.00;;
72864;SDS011;61000;48.120;11.548;2024-02-21T09:54:34;1.95;;;0.77;;
72864;SDS011;61000;48.120;11.548;2024-02-21T09:57:01;2.70;;;0.85;;
72864;SDS011;61000;48.120;11.548;2024-02-21T09:59:28;1.63;;;1.08;;
72864;SDS011;61000;48.120;11.548;2024-02-21T10:01:57;1.23;;;0.90;;
72864;SDS011;61000;48.120;11.548;2024-02-21T10:04:25;1.17;;;0.90;;
72864;SDS011;61000;48.120;11.548;2024-02-21T10:06:53;1.48;;;0.70;;
72864;SDS011;61000;48.120;11.548;2024-02-21T10:09:22;1.33;;;0.80;;
72864;SDS011;61000;48.120;11.548;2024-02-21T10:11:49;1.00;;;0.85;;
72864;SDS011;61000;48.120;11.548;2024-02-21T10:14:16;1.02;;;0.80;;
72864;SDS011;61000;48.120;11.548;2024-02-21T10:16:44;1.23;;;0.68;;
72864;SDS011;61000;48.120;11.548;2024-02-21T10:19:17;1.00;;;0.90;;
72864;SDS011;61000;48.120;11.548;2024-02-21T10:21:57;0.88;;;0.60;;
72864;SDS011;61000;48.120;11.548;2024-02-21T10:24:27;1.50;;;0.90;;
72864;SDS011;61000;48.120;11.548;2024-02-21T10:26:58;0.85;;;0.70;;
72864;SDS011;61000;48.120;11.548;2024-02-21T10:29:26;2.10;;;0.80;;
72864;SDS011;61000;48.120;11.548;2024-02-21T10:32:03;1.23;;;0.90;;
72864;SDS011;61000;48.120;11.548;2024-02-21T10:34:33;1.35;;;0.90;;
72864;SDS011;61000;48.120;11.548;2024-02-21T10:37:01;0.98;;;0.95;;
72864;SDS011;61000;48.120;11.548;2024-02-21T10:39:31;2.00;;;0.98;;
72864;SDS011;61000;48.120;11.548;2024-02-21T10:41:59;1.27;;;1.00;;
72864;SDS011;61000;48.120;11.548;2024-02-21T10:44:29;1.52;;;0.70;;
72864;SDS011;61000;48.120;11.548;2024-02-21T10:46:57;0.85;;;0.57;;
72864;SDS011;61000;48.120;11.548;2024-02-21T10:49:24;1.58;;;1.05;;
72864;SDS011;61000;48.120;11.548;2024-02-21T10:51:54;5.18;;;0.93;;
72864;SDS011;61000;48.120;11.548;2024-02-21T10:54:36;0.70;;;0.70;;
72864;SDS011;61000;48.120;11.548;2024-02-21T10:57:11;0.90;;;0.80;;
72864;SDS011;61000;48.120;11.548;2024-02-21T10:59:39;1.10;;;1.00;;
72864;SDS011;61000;48.120;11.548;2024-02-21T11:02:06;2.35;;;0.90;;
72864;SDS011;61000;48.120;11.548;2024-02-21T11:04:33;0.82;;;0.70;;
72864;SDS011;61000;48.120;11.548;2024-02-21T11:07:02;0.85;;;0.70;;
72864;SDS011;61000;48.120;11.548;2024-02-21T11:09:31;0.65;;;0.65;;
72864;SDS011;61000;48.120;11.548;2024-02-21T11:12:01;0.82;;;0.82;;
72864;SDS011;61000;48.120;11.548;2024-02-21T11:14:29;1.38;;;0.88;;
72864;SDS011;61000;48.120;11.548;2024-02-21T11:16:58;3.17;;;1.00;;
72864;SDS011;61000;48.120;11.548;2024-02-21T11:19:25;2.10;;;1.80;;
72864;SDS011;61000;48.120;11.548;2024-02-21T11:21:55;2.33;;;1.00;;
72864;SDS011;61000;48.120;11.548;2024-02-21T11:24:27;1.40;;;1.20;;
72864;SDS011;61000;48.120;11.548;2024-02-21T11:26:55;1.30;;;0.93;;
72864;SDS011;61000;48.120;11.548;2024-02-21T11:29:26;1.08;;;0.90;;
72864;SDS011;61000;48.120;11.548;2024-02-21T11:31:54;1.98;;;1.10;;
72864;SDS011;61000;48.120;11.548;2024-02-21T11:34:21;1.33;;;1.02;;
72864;SDS011;61000;48.120;11.548;2024-02-21T11:36:48;1.42;;;1.00;;
72864;SDS011;61000;48.120;11.548;2024-02-21T11:39:19;1.25;;;0.80;;
72864;SDS011;61000;48.120;11.548;2024-02-21T11:41:47;1.23;;;1.08;;
72864;SDS011;61000;48.120;11.548;2024-02-21T11:44:24;3.10;;;1.20;;
72864;SDS011;61000;48.120;11.548;2024-02-21T11:46:53;1.25;;;1.15;;
72864;SDS011;61000;48.120;11.548;2024-02-21T11:49:20;1.00;;;1.00;;
72864;SDS011;61000;48.120;11.548;2024-02-21T11:51:47;1.00;;;0.90;;
72864;SDS011;61000;48.120;11.548;2024-02-21T11:54:14;5.32;;;1.45;;
72864;SDS011;61000;48.120;11.548;2024-02-21T11:56:42;1.05;;;0.90;;
72864;SDS011;61000;48.120;11.548;2024-02-21T11:59:09;1.05;;;1.00;;
72864;SDS011;61000;48.120;11.548;2024-02-21T12:01:37;1.23;;;1.10;;
72864;SDS011;61000;48.120;11.548;2024-02-21T12:04:04;0.80;;;0.80;;
72864;SDS011;61000;48.120;11.548;2024-02-21T12:06:32;0.80;;;0.80;;
72864;SDS011;61000;48.120;11.548;2024-02-21T12:08:59;1.05;;;0.90;;
72864;SDS011;61000;48.120;11.548;2024-02-21T12:11:27;2.47;;;0.93;;
72864;SDS011;61000;48.120;11.548;2024-02-21T12:14:00;2.20;;;0.90;;
72864;SDS011;61000;48.120;11.548;2024-02-21T12:16:28;0.60;;;0.60;;
72864;SDS011;61000;48.120;11.548;2024-02-21T12:19:00;1.20;;;0.85;;
72864;SDS011;61000;48.120;11.548;2024-02-21T12:21:30;0.75;;;0.75;;
72864;SDS011;61000;48.120;11.548;2024-02-21T12:23:57;0.88;;;0.80;;
72864;SDS011;61000;48.120;11.548;2024-02-21T12:26:24;0.85;;;0.80;;
72864;SDS011;61000;48.120;11.548;2024-02-21T12:28:52;1.70;;;0.90;;
72864;SDS011;61000;48.120;11.548;2024-02-21T12:31:20;0.75;;;0.60;;
72864;SDS011;61000;48.120;11.548;2024-02-21T12:33:47;0.90;;;0.90;;
72864;SDS011;61000;48.120;11.548;2024-02-21T12:36:16;0.70;;;0.70;;
72864;SDS011;61000;48.120;11.548;2024-02-21T12:38:42;1.08;;;0.88;;
72864;SDS011;61000;48.120;11.548;2024-02-21T12:41:11;0.50;;;0.50;;
72864;SDS011;61000;48.120;11.548;2024-02-21T12:43:38;0.80;;;0.80;;
72864;SDS011;61000;48.120;11.548;2024-02-21T12:46:05;0.80;;;0.80;;
72864;SDS011;61000;48.120;11.548;2024-02-21T12:48:33;0.60;;;0.60;;
72864;SDS011;61000;48.120;11.548;2024-02-21T12:50:59;2.30;;;0.70;;
72864;SDS011;61000;48.120;11.548;2024-02-21T12:53:28;0.65;;;0.60;;
72864;SDS011;61000;48.120;11.548;2024-02-21T12:55:55;1.00;;;0.70;;
72864;SDS011;61000;48.120;11.548;2024-02-21T12:58:22;2.40;;;0.60;;
72864;SDS011;61000;48.120;11.548;2024-02-21T13:00:49;0.70;;;0.70;;
72864;SDS011;61000;48.120;11.548;2024-02-21T13:03:16;5.10;;;0.70;;
72864;SDS011;61000;48.120;11.548;2024-02-21T13:05:43;0.80;;;0.80;;
72864;SDS011;61000;48.120;11.548;2024-02-21T13:08:10;0.80;;;0.80;;
72864;SDS011;61000;48.120;11.548;2024-02-21T13:10:38;2.17;;;0.80;;
72864;SDS011;61000;48.120;11.548;2024-02-21T13:13:05;0.98;;;0.80;;
72864;SDS011;61000;48.120;11.548;2024-02-21T13:15:32;0.70;;;0.63;;
72864;SDS011;61000;48.120;11.548;2024-02-21T13:17:59;0.95;;;0.80;;
72864;SDS011;61000;48.120;11.548;2024-02-21T13:20:26;0.70;;;0.70;;
72864;SDS011;61000;48.120;11.548;2024-02-21T13:22:54;1.88;;;0.60;;
72864;SDS011;61000;48.120;11.548;2024-02-21T13:25:21;0.70;;;0.70;;
72864;SDS011;61000;48.120;11.548;2024-02-21T13:27:49;1.65;;;0.85;;
72864;SDS011;61000;48.120;11.548;2024-02-21T13:30:16;0.65;;;0.65;;
72864;SDS011;61000;48.120;11.548;2024-02-21T13:32:43;1.52;;;0.70;;
72864;SDS011;61000;48.120;11.548;2024-02-21T13:35:11;1.23;;;0.88;;
72864;SDS011;61000;48.120;11.548;2024-02-21T13:37:39;0.82;;;0.80;;
72864;SDS011;61000;48.120;11.548;2024-02-21T13:40:07;2.17;;;1.00;;
72864;SDS011;61000;48.120;11.548;2024-02-21T13:42:35;3.03;;;0.60;;
72864;SDS011;61000;48.120;11.548;2024-02-21T13:45:04;2.03;;;0.70;;
72864;SDS011;61000;48.120;11.548;2024-02-21T13:47:31;0.70;;;0.70;;
72864;SDS011;61000;48.120;11.548;2024-02-21T13:49:58;2.97;;;0.88;;
72864;SDS011;61000;48.120;11.548;2024-02-21T13:52:25;3.13;;;0.93;;
72864;SDS011;61000;48.120;11.548;2024-02-21T13:54:52;0.70;;;0.70;;
72864;SDS011;61000;48.120;11.548;2024-02-21T13:57:19;0.70;;;0.70;;
72864;SDS011;61000;48.120;11.548;2024-02-21T13:59:46;0.55;;;0.55;;
72864;SDS011;61000;48.120;11.548;2024-02-21T14:02:14;2.22;;;1.25;;
72864;SDS011;61000;48.120;11.548;2024-02-21T14:04:41;2.40;;;1.23;;
72864;SDS011;61000;48.120;11.548;2024-02-21T14:07:08;1.08;;;0.90;;
72864;SDS011;61000;48.120;11.548;2024-02-21T14:09:35;1.25;;;0.90;;
72864;SDS011;61000;48.120;11.548;2024-02-21T14:12:02;0.95;;;0.90;;
72864;SDS011;61000;48.120;11.548;2024-02-21T14:14:33;1.17;;;0.85;;
72864;SDS011;61000;48.120;11.548;2024-02-21T14:17:00;2.88;;;1.70;;
72864;SDS011;61000;48.120;11.548;2024-02-21T14:19:28;4.30;;;2.60;;
72864;SDS011;61000;48.120;11.548;2024-02-21T14:21:56;4.00;;;1.20;;
72864;SDS011;61000;48.120;11.548;2024-02-21T14:24:22;1.17;;;1.08;;
72864;SDS011;61000;48.120;11.548;2024-02-21T14:26:49;3.13;;;2.08;;
72864;SDS011;61000;48.120;11.548;2024-02-21T14:29:16;1.45;;;1.20;;
72864;SDS011;61000;48.120;11.548;2024-02-21T14:31:43;3.53;;;1.02;;
72864;SDS011;61000;48.120;11.548;2024-02-21T14:34:10;3.33;;;1.60;;
72864;SDS011;61000;48.120;11.548;2024-02-21T14:36:38;1.00;;;1.00;;